sensor_id;sensor_type;location;lat;lon;timestamp;temperature;humidity
13848;DHT22;6994;49.752;6.094;2023-05-07T00:01:32;12.40;99.90
13848;DHT22;6994;49.752;6.094;2023-05-07T00:04:00;12.30;99.90
13848;DHT22;6994;49.752;6.094;2023-05-07T00:06:29;12.20;99.90
13848;DHT22;6994;49.752;6.094;2023-05-07T00:08:56;12.10;99.90
13848;DHT22;6994;49.752;6.094;2023-05-07T00:11:24;12.00;99.90
13848;DHT22;6994;49.752;6.094;2023-05-07T00:13:53;11.90;99.90
13848;DHT22;6994;49.752;6.094;2023-05-07T00:16:20;11.90;99.90
13848;DHT22;6994;49.752;6.094;2023-05-07T00:18:47;11.90;99.90
13848;DHT22;6994;49.752;6.094;2023-05-07T00:21:15;11.80;99.90
13848;DHT22;6994;49.752;6.094;2023-05-07T00:23:43;12.00;99.90
13848;DHT22;6994;49.752;6.094;2023-05-07T00:26:11;12.00;99.90
13848;DHT22;6994;49.752;6.094;2023-05-07T00:28:39;12.00;99.90
13848;DHT22;6994;49.752;6.094;2023-05-07T00:31:07;11.90;99.90
13848;DHT22;6994;49.752;6.094;2023-05-07T00:33:35;11.80;99.90
13848;DHT22;6994;49.752;6.094;2023-05-07T00:36:02;11.70;99.90
13848;DHT22;6994;49.752;6.094;2023-05-07T00:38:30;11.70;99.90
13848;DHT22;6994;49.752;6.094;2023-05-07T00:40:58;11.70;99.90
13848;DHT22;6994;49.752;6.094;2023-05-07T00:43:25;11.60;99.90
13848;DHT22;6994;49.752;6.094;2023-05-07T00:45:52;11.60;99.90
13848;DHT22;6994;49.752;6.094;2023-05-07T00:48:19;11.60;99.90
13848;DHT22;6994;49.752;6.094;2023-05-07T00:50:46;11.70;99.90
13848;DHT22;6994;49.752;6.094;2023-05-07T00:53:14;11.90;99.90
13848;DHT22;6994;49.752;6.094;2023-05-07T00:55:41;12.00;99.90
13848;DHT22;6994;49.752;6.094;2023-05-07T00:58:08;12.20;99.90
13848;DHT22;6994;49.752;6.094;2023-05-07T01:00:35;12.20;99.90
13848;DHT22;6994;49.752;6.094;2023-05-07T01:03:03;12.10;99.90
13848;DHT22;6994;49.752;6.094;2023-05-07T01:05:30;12.10;99.90
13848;DHT22;6994;49.752;6.094;2023-05-07T01:07:58;12.00;99.90
13848;DHT22;6994;49.752;6.094;2023-05-07T01:10:25;11.90;99.90
13848;DHT22;6994;49.752;6.094;2023-05-07T01:12:52;11.70;99.90
13848;DHT22;6994;49.752;6.094;2023-05-07T01:15:19;11.70;99.90
13848;DHT22;6994;49.752;6.094;2023-05-07T01:17:46;11.80;99.90
13848;DHT22;6994;49.752;6.094;2023-05-07T01:20:14;11.80;99.90
13848;DHT22;6994;49.752;6.094;2023-05-07T01:22:41;11.70;99.90
13848;DHT22;6994;49.752;6.094;2023-05-07T01:25:08;11.60;99.90
13848;DHT22;6994;49.752;6.094;2023-05-07T01:27:35;11.70;99.90
13848;DHT22;6994;49.752;6.094;2023-05-07T01:30:03;11.70;99.90
13848;DHT22;6994;49.752;6.094;2023-05-07T01:32:41;11.50;99.90
13848;DHT22;6994;49.752;6.094;2023-05-07T01:35:07;11.50;99.90
13848;DHT22;6994;49.752;6.094;2023-05-07T01:37:34;11.40;99.90
13848;DHT22;6994;49.752;6.094;2023-05-07T01:40:01;11.30;99.90
13848;DHT22;6994;49.752;6.094;2023-05-07T01:42:29;11.20;99.90
13848;DHT22;6994;49.752;6.094;2023-05-07T01:44:55;11.40;99.90
13848;DHT22;6994;49.752;6.094;2023-05-07T01:47:23;11.40;99.90
13848;DHT22;6994;49.752;6.094;2023-05-07T01:49:50;11.30;99.90
13848;DHT22;6994;49.752;6.094;2023-05-07T01:52:17;11.20;99.90
13848;DHT22;6994;49.752;6.094;2023-05-07T01:54:44;11.10;99.90
13848;DHT22;6994;49.752;6.094;2023-05-07T01:57:12;11.00;99.90
13848;DHT22;6994;49.752;6.094;2023-05-07T01:59:40;10.90;99.90
13848;DHT22;6994;49.752;6.094;2023-05-07T02:02:07;10.80;99.90
13848;DHT22;6994;49.752;6.094;2023-05-07T02:04:34;10.80;99.90
13848;DHT22;6994;49.752;6.094;2023-05-07T02:07:01;10.70;99.90
13848;DHT22;6994;49.752;6.094;2023-05-07T02:09:28;10.90;99.90
13848;DHT22;6994;49.752;6.094;2023-05-07T02:11:56;10.90;99.90
13848;DHT22;6994;49.752;6.094;2023-05-07T02:14:23;11.10;99.90
13848;DHT22;6994;49.752;6.094;2023-05-07T02:16:50;11.10;99.90
13848;DHT22;6994;49.752;6.094;2023-05-07T02:19:17;11.00;99.90
13848;DHT22;6994;49.752;6.094;2023-05-07T02:21:44;10.90;99.90
13848;DHT22;6994;49.752;6.094;2023-05-07T02:24:12;10.70;99.90
13848;DHT22;6994;49.752;6.094;2023-05-07T02:26:40;10.60;99.90
13848;DHT22;6994;49.752;6.094;2023-05-07T02:29:08;10.50;99.90
13848;DHT22;6994;49.752;6.094;2023-05-07T02:31:35;10.50;99.90
13848;DHT22;6994;49.752;6.094;2023-05-07T02:34:03;10.50;99.90
13848;DHT22;6994;49.752;6.094;2023-05-07T02:36:30;10.40;99.90
13848;DHT22;6994;49.752;6.094;2023-05-07T02:38:57;10.40;99.90
13848;DHT22;6994;49.752;6.094;2023-05-07T02:41:24;10.30;99.90
13848;DHT22;6994;49.752;6.094;2023-05-07T02:43:51;10.20;99.90
13848;DHT22;6994;49.752;6.094;2023-05-07T02:46:19;10.20;99.90
13848;DHT22;6994;49.752;6.094;2023-05-07T02:48:46;10.20;99.90
13848;DHT22;6994;49.752;6.094;2023-05-07T02:51:13;10.20;99.90
13848;DHT22;6994;49.752;6.094;2023-05-07T02:53:41;10.10;99.90
13848;DHT22;6994;49.752;6.094;2023-05-07T02:56:09;10.10;99.90
13848;DHT22;6994;49.752;6.094;2023-05-07T02:58:37;10.10;99.90
13848;DHT22;6994;49.752;6.094;2023-05-07T03:01:05;10.10;99.90
13848;DHT22;6994;49.752;6.094;2023-05-07T03:03:32;10.10;99.90
13848;DHT22;6994;49.752;6.094;2023-05-07T03:06:00;10.10;99.90
13848;DHT22;6994;49.752;6.094;2023-05-07T03:08:27;10.10;99.90
13848;DHT22;6994;49.752;6.094;2023-05-07T03:10:54;10.10;99.90
13848;DHT22;6994;49.752;6.094;2023-05-07T03:13:21;10.10;99.90
13848;DHT22;6994;49.752;6.094;2023-05-07T03:15:48;10.10;99.90
13848;DHT22;6994;49.752;6.094;2023-05-07T03:18:15;10.10;99.90
13848;DHT22;6994;49.752;6.094;2023-05-07T03:20:43;10.20;99.90
13848;DHT22;6994;49.752;6.094;2023-05-07T03:23:10;10.20;99.90
13848;DHT22;6994;49.752;6.094;2023-05-07T03:25:38;10.20;99.90
13848;DHT22;6994;49.752;6.094;2023-05-07T03:28:06;10.20;99.90
13848;DHT22;6994;49.752;6.094;2023-05-07T03:30:33;10.20;99.90
13848;DHT22;6994;49.752;6.094;2023-05-07T03:33:00;10.20;99.90
13848;DHT22;6994;49.752;6.094;2023-05-07T03:35:27;10.20;99.90
13848;DHT22;6994;49.752;6.094;2023-05-07T03:37:55;10.50;99.90
13848;DHT22;6994;49.752;6.094;2023-05-07T03:40:22;10.50;99.90
13848;DHT22;6994;49.752;6.094;2023-05-07T03:42:49;10.50;99.90
13848;DHT22;6994;49.752;6.094;2023-05-07T03:45:16;10.40;99.90
13848;DHT22;6994;49.752;6.094;2023-05-07T03:47:43;10.60;99.90
13848;DHT22;6994;49.752;6.094;2023-05-07T03:50:11;10.60;99.90
13848;DHT22;6994;49.752;6.094;2023-05-07T03:52:38;10.50;99.90
13848;DHT22;6994;49.752;6.094;2023-05-07T03:55:05;10.40;99.90
13848;DHT22;6994;49.752;6.094;2023-05-07T03:57:32;10.40;99.90
13848;DHT22;6994;49.752;6.094;2023-05-07T04:00:00;10.30;99.90
13848;DHT22;6994;49.752;6.094;2023-05-07T04:02:28;10.30;99.90
13848;DHT22;6994;49.752;6.094;2023-05-07T04:04:56;10.30;99.90
13848;DHT22;6994;49.752;6.094;2023-05-07T04:07:23;10.30;99.90
13848;DHT22;6994;49.752;6.094;2023-05-07T04:09:51;10.30;99.90
13848;DHT22;6994;49.752;6.094;2023-05-07T04:12:18;10.30;99.90
13848;DHT22;6994;49.752;6.094;2023-05-07T04:14:45;10.20;99.90
13848;DHT22;6994;49.752;6.094;2023-05-07T04:17:12;10.20;99.90
13848;DHT22;6994;49.752;6.094;2023-05-07T04:19:39;10.20;99.90
13848;DHT22;6994;49.752;6.094;2023-05-07T04:22:07;10.10;99.90
13848;DHT22;6994;49.752;6.094;2023-05-07T04:24:34;10.00;99.90
13848;DHT22;6994;49.752;6.094;2023-05-07T04:27:01;10.00;99.90
13848;DHT22;6994;49.752;6.094;2023-05-07T04:29:28;9.90;99.90
13848;DHT22;6994;49.752;6.094;2023-05-07T04:31:55;9.90;99.90
13848;DHT22;6994;49.752;6.094;2023-05-07T04:34:23;9.90;99.90
13848;DHT22;6994;49.752;6.094;2023-05-07T04:36:50;9.90;99.90
13848;DHT22;6994;49.752;6.094;2023-05-07T04:39:17;9.90;99.90
13848;DHT22;6994;49.752;6.094;2023-05-07T04:41:44;9.90;99.90
13848;DHT22;6994;49.752;6.094;2023-05-07T04:44:11;9.90;99.90
13848;DHT22;6994;49.752;6.094;2023-05-07T04:46:39;9.90;99.90
13848;DHT22;6994;49.752;6.094;2023-05-07T04:49:06;9.90;99.90
13848;DHT22;6994;49.752;6.094;2023-05-07T04:51:33;10.00;99.90
13848;DHT22;6994;49.752;6.094;2023-05-07T04:54:00;10.00;99.90
13848;DHT22;6994;49.752;6.094;2023-05-07T04:56:28;10.10;99.90
13848;DHT22;6994;49.752;6.094;2023-05-07T04:58:55;10.20;99.90
13848;DHT22;6994;49.752;6.094;2023-05-07T05:01:23;10.20;99.90
13848;DHT22;6994;49.752;6.094;2023-05-07T05:03:51;10.30;99.90
13848;DHT22;6994;49.752;6.094;2023-05-07T05:06:19;10.40;99.90
13848;DHT22;6994;49.752;6.094;2023-05-07T05:08:47;10.50;99.90
13848;DHT22;6994;49.752;6.094;2023-05-07T05:11:15;10.50;99.90
13848;DHT22;6994;49.752;6.094;2023-05-07T05:13:42;10.50;99.90
13848;DHT22;6994;49.752;6.094;2023-05-07T05:16:09;10.60;99.90
13848;DHT22;6994;49.752;6.094;2023-05-07T05:18:36;10.70;99.90
13848;DHT22;6994;49.752;6.094;2023-05-07T05:21:03;10.80;99.90
13848;DHT22;6994;49.752;6.094;2023-05-07T05:23:31;11.20;99.90
13848;DHT22;6994;49.752;6.094;2023-05-07T05:25:58;11.40;99.90
13848;DHT22;6994;49.752;6.094;2023-05-07T05:28:26;11.50;99.90
13848;DHT22;6994;49.752;6.094;2023-05-07T05:30:53;11.40;99.90
13848;DHT22;6994;49.752;6.094;2023-05-07T05:33:20;11.50;99.90
13848;DHT22;6994;49.752;6.094;2023-05-07T05:35:49;11.60;99.90
13848;DHT22;6994;49.752;6.094;2023-05-07T05:38:16;11.60;99.90
13848;DHT22;6994;49.752;6.094;2023-05-07T05:40:43;11.60;99.90
13848;DHT22;6994;49.752;6.094;2023-05-07T05:43:10;11.70;99.90
13848;DHT22;6994;49.752;6.094;2023-05-07T05:45:38;11.80;99.90
13848;DHT22;6994;49.752;6.094;2023-05-07T05:48:05;11.90;99.90
13848;DHT22;6994;49.752;6.094;2023-05-07T05:50:32;11.90;99.90
13848;DHT22;6994;49.752;6.094;2023-05-07T05:52:59;12.10;99.90
13848;DHT22;6994;49.752;6.094;2023-05-07T05:55:26;12.20;99.90
13848;DHT22;6994;49.752;6.094;2023-05-07T05:57:54;12.30;99.90
13848;DHT22;6994;49.752;6.094;2023-05-07T06:00:22;12.50;99.90
13848;DHT22;6994;49.752;6.094;2023-05-07T06:02:49;12.70;99.90
13848;DHT22;6994;49.752;6.094;2023-05-07T06:05:16;12.70;99.90
13848;DHT22;6994;49.752;6.094;2023-05-07T06:07:44;13.00;99.90
13848;DHT22;6994;49.752;6.094;2023-05-07T06:10:12;13.20;99.90
13848;DHT22;6994;49.752;6.094;2023-05-07T06:12:40;13.30;99.90
13848;DHT22;6994;49.752;6.094;2023-05-07T06:15:08;13.50;99.90
13848;DHT22;6994;49.752;6.094;2023-05-07T06:17:35;13.50;99.90
13848;DHT22;6994;49.752;6.094;2023-05-07T06:20:03;13.70;99.90
13848;DHT22;6994;49.752;6.094;2023-05-07T06:22:30;13.90;99.90
13848;DHT22;6994;49.752;6.094;2023-05-07T06:24:57;14.10;99.90
13848;DHT22;6994;49.752;6.094;2023-05-07T06:27:24;14.60;99.90
13848;DHT22;6994;49.752;6.094;2023-05-07T06:29:51;14.80;99.90
13848;DHT22;6994;49.752;6.094;2023-05-07T06:32:19;14.90;99.90
13848;DHT22;6994;49.752;6.094;2023-05-07T06:34:46;15.00;99.90
13848;DHT22;6994;49.752;6.094;2023-05-07T06:37:13;15.50;99.90
13848;DHT22;6994;49.752;6.094;2023-05-07T06:39:40;15.60;99.90
13848;DHT22;6994;49.752;6.094;2023-05-07T06:42:08;15.60;99.90
13848;DHT22;6994;49.752;6.094;2023-05-07T06:44:36;15.60;99.90
13848;DHT22;6994;49.752;6.094;2023-05-07T06:47:04;15.60;99.90
13848;DHT22;6994;49.752;6.094;2023-05-07T06:49:32;15.60;99.90
13848;DHT22;6994;49.752;6.094;2023-05-07T06:52:00;15.60;99.90
13848;DHT22;6994;49.752;6.094;2023-05-07T06:54:28;15.60;99.90
13848;DHT22;6994;49.752;6.094;2023-05-07T06:56:55;15.60;99.90
13848;DHT22;6994;49.752;6.094;2023-05-07T06:59:23;15.70;99.90
13848;DHT22;6994;49.752;6.094;2023-05-07T07:01:49;16.00;99.90
13848;DHT22;6994;49.752;6.094;2023-05-07T07:04:16;16.10;99.90
13848;DHT22;6994;49.752;6.094;2023-05-07T07:06:43;16.20;99.90
13848;DHT22;6994;49.752;6.094;2023-05-07T07:09:11;16.20;99.90
13848;DHT22;6994;49.752;6.094;2023-05-07T07:11:38;16.20;99.90
13848;DHT22;6994;49.752;6.094;2023-05-07T07:14:05;16.30;99.90
13848;DHT22;6994;49.752;6.094;2023-05-07T07:16:33;16.40;99.90
13848;DHT22;6994;49.752;6.094;2023-05-07T07:19:01;16.40;99.90
13848;DHT22;6994;49.752;6.094;2023-05-07T07:21:28;16.40;99.90
13848;DHT22;6994;49.752;6.094;2023-05-07T07:23:55;16.50;99.90
13848;DHT22;6994;49.752;6.094;2023-05-07T07:26:23;16.60;99.90
13848;DHT22;6994;49.752;6.094;2023-05-07T07:28:50;16.70;99.90
13848;DHT22;6994;49.752;6.094;2023-05-07T07:31:17;16.70;99.90
13848;DHT22;6994;49.752;6.094;2023-05-07T07:33:44;16.80;99.90
13848;DHT22;6994;49.752;6.094;2023-05-07T07:36:11;16.80;99.90
13848;DHT22;6994;49.752;6.094;2023-05-07T07:38:39;17.20;99.90
13848;DHT22;6994;49.752;6.094;2023-05-07T07:41:07;17.30;99.90
13848;DHT22;6994;49.752;6.094;2023-05-07T07:43:33;17.30;99.90
13848;DHT22;6994;49.752;6.094;2023-05-07T07:46:00;17.40;99.90
13848;DHT22;6994;49.752;6.094;2023-05-07T07:48:28;17.60;99.90
13848;DHT22;6994;49.752;6.094;2023-05-07T07:50:56;17.60;99.90
13848;DHT22;6994;49.752;6.094;2023-05-07T07:53:23;17.60;99.90
13848;DHT22;6994;49.752;6.094;2023-05-07T07:55:51;17.70;99.90
13848;DHT22;6994;49.752;6.094;2023-05-07T07:58:18;17.70;99.90
13848;DHT22;6994;49.752;6.094;2023-05-07T08:00:45;18.20;99.90
13848;DHT22;6994;49.752;6.094;2023-05-07T08:03:12;18.30;99.90
13848;DHT22;6994;49.752;6.094;2023-05-07T08:05:39;18.70;99.90
13848;DHT22;6994;49.752;6.094;2023-05-07T08:08:07;18.80;99.90
13848;DHT22;6994;49.752;6.094;2023-05-07T08:10:35;18.90;99.90
13848;DHT22;6994;49.752;6.094;2023-05-07T08:13:03;19.00;99.90
13848;DHT22;6994;49.752;6.094;2023-05-07T08:15:31;19.00;99.90
13848;DHT22;6994;49.752;6.094;2023-05-07T08:17:58;19.10;99.90
13848;DHT22;6994;49.752;6.094;2023-05-07T08:20:25;19.20;99.90
13848;DHT22;6994;49.752;6.094;2023-05-07T08:22:52;19.30;99.90
13848;DHT22;6994;49.752;6.094;2023-05-07T08:25:19;19.60;99.90
13848;DHT22;6994;49.752;6.094;2023-05-07T08:27:47;19.70;99.90
13848;DHT22;6994;49.752;6.094;2023-05-07T08:30:14;19.60;99.90
13848;DHT22;6994;49.752;6.094;2023-05-07T08:32:41;19.70;99.90
13848;DHT22;6994;49.752;6.094;2023-05-07T08:35:09;20.10;99.90
13848;DHT22;6994;49.752;6.094;2023-05-07T08:37:37;20.10;99.90
13848;DHT22;6994;49.752;6.094;2023-05-07T08:40:04;20.10;99.90
13848;DHT22;6994;49.752;6.094;2023-05-07T08:42:31;20.10;99.90
13848;DHT22;6994;49.752;6.094;2023-05-07T08:44:59;20.10;99.90
13848;DHT22;6994;49.752;6.094;2023-05-07T08:47:27;20.20;99.90
13848;DHT22;6994;49.752;6.094;2023-05-07T08:49:53;20.60;99.90
13848;DHT22;6994;49.752;6.094;2023-05-07T08:52:20;20.70;99.90
13848;DHT22;6994;49.752;6.094;2023-05-07T08:54:48;20.70;99.90
13848;DHT22;6994;49.752;6.094;2023-05-07T08:57:15;20.80;99.90
13848;DHT22;6994;49.752;6.094;2023-05-07T08:59:43;20.90;99.90
13848;DHT22;6994;49.752;6.094;2023-05-07T09:02:11;20.90;99.90
13848;DHT22;6994;49.752;6.094;2023-05-07T09:04:38;20.90;99.90
13848;DHT22;6994;49.752;6.094;2023-05-07T09:07:05;21.00;99.90
13848;DHT22;6994;49.752;6.094;2023-05-07T09:09:32;21.00;99.90
13848;DHT22;6994;49.752;6.094;2023-05-07T09:11:59;21.40;99.90
13848;DHT22;6994;49.752;6.094;2023-05-07T09:14:27;21.50;99.90
13848;DHT22;6994;49.752;6.094;2023-05-07T09:16:54;21.80;99.90
13848;DHT22;6994;49.752;6.094;2023-05-07T09:19:24;21.70;99.90
13848;DHT22;6994;49.752;6.094;2023-05-07T09:22:04;21.60;99.90
13848;DHT22;6994;49.752;6.094;2023-05-07T09:24:31;21.60;99.90
13848;DHT22;6994;49.752;6.094;2023-05-07T09:26:58;21.50;99.90
13848;DHT22;6994;49.752;6.094;2023-05-07T09:29:25;21.40;99.90
13848;DHT22;6994;49.752;6.094;2023-05-07T09:31:52;21.50;99.90
13848;DHT22;6994;49.752;6.094;2023-05-07T09:34:19;21.50;99.90
13848;DHT22;6994;49.752;6.094;2023-05-07T09:36:47;21.90;99.90
13848;DHT22;6994;49.752;6.094;2023-05-07T09:39:14;22.00;99.90
13848;DHT22;6994;49.752;6.094;2023-05-07T09:41:44;22.00;99.90
13848;DHT22;6994;49.752;6.094;2023-05-07T09:44:11;22.00;99.90
13848;DHT22;6994;49.752;6.094;2023-05-07T09:46:38;22.00;99.90
13848;DHT22;6994;49.752;6.094;2023-05-07T09:49:06;21.90;99.90
13848;DHT22;6994;49.752;6.094;2023-05-07T09:51:39;21.90;99.90
13848;DHT22;6994;49.752;6.094;2023-05-07T09:54:06;22.20;99.90
13848;DHT22;6994;49.752;6.094;2023-05-07T09:56:33;22.20;99.90
13848;DHT22;6994;49.752;6.094;2023-05-07T09:59:00;22.10;99.90
13848;DHT22;6994;49.752;6.094;2023-05-07T10:01:28;22.10;99.90
13848;DHT22;6994;49.752;6.094;2023-05-07T10:03:55;22.10;99.90
13848;DHT22;6994;49.752;6.094;2023-05-07T10:06:23;22.10;99.90
13848;DHT22;6994;49.752;6.094;2023-05-07T10:08:49;22.20;99.90
13848;DHT22;6994;49.752;6.094;2023-05-07T10:11:16;22.20;99.90
13848;DHT22;6994;49.752;6.094;2023-05-07T10:13:44;22.40;99.90
13848;DHT22;6994;49.752;6.094;2023-05-07T10:16:11;22.60;99.90
13848;DHT22;6994;49.752;6.094;2023-05-07T10:18:39;22.90;99.90
13848;DHT22;6994;49.752;6.094;2023-05-07T10:21:16;22.90;99.90
13848;DHT22;6994;49.752;6.094;2023-05-07T10:23:39;23.10;99.90
13848;DHT22;6994;49.752;6.094;2023-05-07T10:26:06;23.30;99.90
13848;DHT22;6994;49.752;6.094;2023-05-07T10:28:35;23.70;99.90
13848;DHT22;6994;49.752;6.094;2023-05-07T10:31:12;23.90;99.90
13848;DHT22;6994;49.752;6.094;2023-05-07T10:33:36;24.30;99.90
13848;DHT22;6994;49.752;6.094;2023-05-07T10:36:04;24.50;99.90
13848;DHT22;6994;49.752;6.094;2023-05-07T10:38:31;24.50;99.90
13848;DHT22;6994;49.752;6.094;2023-05-07T10:40:58;24.70;99.90
13848;DHT22;6994;49.752;6.094;2023-05-07T10:43:25;25.00;99.90
13848;DHT22;6994;49.752;6.094;2023-05-07T10:46:14;25.20;99.90
13848;DHT22;6994;49.752;6.094;2023-05-07T10:51:26;26.10;95.80
13848;DHT22;6994;49.752;6.094;2023-05-07T10:56:39;26.60;96.10
13848;DHT22;6994;49.752;6.094;2023-05-07T11:01:54;26.50;98.00
13848;DHT22;6994;49.752;6.094;2023-05-07T11:04:21;26.80;98.80
13848;DHT22;6994;49.752;6.094;2023-05-07T11:09:54;27.70;95.60
13848;DHT22;6994;49.752;6.094;2023-05-07T11:15:04;28.60;94.10
13848;DHT22;6994;49.752;6.094;2023-05-07T11:17:32;28.30;92.90
13848;DHT22;6994;49.752;6.094;2023-05-07T11:20:00;28.10;92.60
13848;DHT22;6994;49.752;6.094;2023-05-07T11:25:01;27.90;92.70
13848;DHT22;6994;49.752;6.094;2023-05-07T11:27:28;27.60;93.50
13848;DHT22;6994;49.752;6.094;2023-05-07T11:29:56;27.50;92.60
13848;DHT22;6994;49.752;6.094;2023-05-07T11:32:31;27.20;92.10
13848;DHT22;6994;49.752;6.094;2023-05-07T11:34:54;27.20;92.10
13848;DHT22;6994;49.752;6.094;2023-05-07T11:37:22;26.90;92.50
13848;DHT22;6994;49.752;6.094;2023-05-07T11:39:48;26.60;93.30
13848;DHT22;6994;49.752;6.094;2023-05-07T11:42:28;26.20;95.60
13848;DHT22;6994;49.752;6.094;2023-05-07T11:44:55;25.70;97.50
13848;DHT22;6994;49.752;6.094;2023-05-07T11:47:23;24.10;99.70
13848;DHT22;6994;49.752;6.094;2023-05-07T11:49:51;23.40;99.90
13848;DHT22;6994;49.752;6.094;2023-05-07T11:52:18;23.30;99.90
13848;DHT22;6994;49.752;6.094;2023-05-07T11:54:51;22.70;99.90
13848;DHT22;6994;49.752;6.094;2023-05-07T11:57:18;22.20;99.90
13848;DHT22;6994;49.752;6.094;2023-05-07T11:59:45;22.20;99.90
13848;DHT22;6994;49.752;6.094;2023-05-07T12:02:15;22.00;99.90
13848;DHT22;6994;49.752;6.094;2023-05-07T12:04:43;21.80;99.90
13848;DHT22;6994;49.752;6.094;2023-05-07T12:07:14;21.80;99.90
13848;DHT22;6994;49.752;6.094;2023-05-07T12:09:43;21.80;99.90
13848;DHT22;6994;49.752;6.094;2023-05-07T12:12:10;21.80;99.90
13848;DHT22;6994;49.752;6.094;2023-05-07T12:14:38;21.80;99.90
13848;DHT22;6994;49.752;6.094;2023-05-07T12:17:05;21.80;99.90
13848;DHT22;6994;49.752;6.094;2023-05-07T12:19:34;21.80;99.90
13848;DHT22;6994;49.752;6.094;2023-05-07T12:22:07;21.80;99.90
13848;DHT22;6994;49.752;6.094;2023-05-07T12:24:28;21.80;99.90
13848;DHT22;6994;49.752;6.094;2023-05-07T12:26:56;21.90;99.90
13848;DHT22;6994;49.752;6.094;2023-05-07T12:29:23;22.00;99.90
13848;DHT22;6994;49.752;6.094;2023-05-07T12:31:50;22.30;99.90
13848;DHT22;6994;49.752;6.094;2023-05-07T12:34:17;22.80;99.90
13848;DHT22;6994;49.752;6.094;2023-05-07T12:36:45;23.50;99.90
13848;DHT22;6994;49.752;6.094;2023-05-07T12:39:13;24.10;99.90
13848;DHT22;6994;49.752;6.094;2023-05-07T12:41:54;24.80;99.90
13848;DHT22;6994;49.752;6.094;2023-05-07T12:44:35;24.70;99.90
13848;DHT22;6994;49.752;6.094;2023-05-07T12:46:51;25.00;99.90
13848;DHT22;6994;49.752;6.094;2023-05-07T12:49:19;25.20;99.90
13848;DHT22;6994;49.752;6.094;2023-05-07T12:51:48;25.40;99.90
13848;DHT22;6994;49.752;6.094;2023-05-07T12:54:35;25.60;99.60
13848;DHT22;6994;49.752;6.094;2023-05-07T12:57:08;25.80;99.20
13848;DHT22;6994;49.752;6.094;2023-05-07T12:59:38;26.40;97.40
13848;DHT22;6994;49.752;6.094;2023-05-07T13:02:04;26.20;97.80
13848;DHT22;6994;49.752;6.094;2023-05-07T13:04:32;25.50;98.50
13848;DHT22;6994;49.752;6.094;2023-05-07T13:07:00;25.20;98.20
13848;DHT22;6994;49.752;6.094;2023-05-07T13:09:28;24.90;98.60
13848;DHT22;6994;49.752;6.094;2023-05-07T13:11:58;24.80;98.60
13848;DHT22;6994;49.752;6.094;2023-05-07T13:14:28;24.50;99.30
13848;DHT22;6994;49.752;6.094;2023-05-07T13:16:55;24.00;99.50
13848;DHT22;6994;49.752;6.094;2023-05-07T13:19:22;23.90;99.90
13848;DHT22;6994;49.752;6.094;2023-05-07T13:21:49;23.90;99.60
13848;DHT22;6994;49.752;6.094;2023-05-07T13:24:17;23.70;99.90
13848;DHT22;6994;49.752;6.094;2023-05-07T13:26:44;23.70;99.90
13848;DHT22;6994;49.752;6.094;2023-05-07T13:29:11;23.40;99.90
13848;DHT22;6994;49.752;6.094;2023-05-07T13:31:38;23.20;99.90
13848;DHT22;6994;49.752;6.094;2023-05-07T13:34:05;23.00;99.90
13848;DHT22;6994;49.752;6.094;2023-05-07T13:36:33;22.80;99.90
13848;DHT22;6994;49.752;6.094;2023-05-07T13:39:00;22.70;99.90
13848;DHT22;6994;49.752;6.094;2023-05-07T13:41:27;22.70;99.90
13848;DHT22;6994;49.752;6.094;2023-05-07T13:43:55;23.00;99.90
13848;DHT22;6994;49.752;6.094;2023-05-07T13:46:21;22.90;99.90
13848;DHT22;6994;49.752;6.094;2023-05-07T13:48:49;22.90;99.90
13848;DHT22;6994;49.752;6.094;2023-05-07T13:51:16;23.00;99.90
13848;DHT22;6994;49.752;6.094;2023-05-07T13:53:43;23.10;99.90
13848;DHT22;6994;49.752;6.094;2023-05-07T13:56:10;23.20;99.90
13848;DHT22;6994;49.752;6.094;2023-05-07T13:58:38;23.70;99.90
13848;DHT22;6994;49.752;6.094;2023-05-07T14:01:05;23.60;99.90
13848;DHT22;6994;49.752;6.094;2023-05-07T14:03:33;24.10;99.90
13848;DHT22;6994;49.752;6.094;2023-05-07T14:06:01;24.60;99.90
13848;DHT22;6994;49.752;6.094;2023-05-07T14:08:28;24.60;99.90
13848;DHT22;6994;49.752;6.094;2023-05-07T14:10:55;24.70;99.90
13848;DHT22;6994;49.752;6.094;2023-05-07T14:13:22;24.70;99.90
13848;DHT22;6994;49.752;6.094;2023-05-07T14:15:49;24.60;99.90
13848;DHT22;6994;49.752;6.094;2023-05-07T14:18:17;24.80;99.90
13848;DHT22;6994;49.752;6.094;2023-05-07T14:20:44;24.60;99.90
13848;DHT22;6994;49.752;6.094;2023-05-07T14:23:11;24.40;99.90
13848;DHT22;6994;49.752;6.094;2023-05-07T14:25:38;24.20;99.90
13848;DHT22;6994;49.752;6.094;2023-05-07T14:28:06;24.00;99.90
13848;DHT22;6994;49.752;6.094;2023-05-07T14:30:33;23.90;99.90
13848;DHT22;6994;49.752;6.094;2023-05-07T14:33:00;23.70;99.90
13848;DHT22;6994;49.752;6.094;2023-05-07T14:35:28;23.50;99.90
13848;DHT22;6994;49.752;6.094;2023-05-07T14:37:55;23.50;99.90
13848;DHT22;6994;49.752;6.094;2023-05-07T14:40:22;23.40;99.90
13848;DHT22;6994;49.752;6.094;2023-05-07T14:42:49;23.30;99.90
13848;DHT22;6994;49.752;6.094;2023-05-07T14:45:17;23.10;99.90
13848;DHT22;6994;49.752;6.094;2023-05-07T14:47:44;23.00;99.90
13848;DHT22;6994;49.752;6.094;2023-05-07T14:50:11;23.30;99.90
13848;DHT22;6994;49.752;6.094;2023-05-07T14:52:38;23.20;99.90
13848;DHT22;6994;49.752;6.094;2023-05-07T14:55:05;23.00;99.90
13848;DHT22;6994;49.752;6.094;2023-05-07T14:57:33;22.90;99.90
13848;DHT22;6994;49.752;6.094;2023-05-07T15:00:01;22.70;99.90
13848;DHT22;6994;49.752;6.094;2023-05-07T15:02:28;22.40;99.90
13848;DHT22;6994;49.752;6.094;2023-05-07T15:04:56;22.30;99.90
13848;DHT22;6994;49.752;6.094;2023-05-07T15:07:24;22.20;99.90
13848;DHT22;6994;49.752;6.094;2023-05-07T15:09:52;22.10;99.90
13848;DHT22;6994;49.752;6.094;2023-05-07T15:12:20;22.10;99.90
13848;DHT22;6994;49.752;6.094;2023-05-07T15:14:47;22.00;99.90
13848;DHT22;6994;49.752;6.094;2023-05-07T15:17:14;22.00;99.90
13848;DHT22;6994;49.752;6.094;2023-05-07T15:19:42;22.00;99.90
13848;DHT22;6994;49.752;6.094;2023-05-07T15:22:09;21.90;99.90
13848;DHT22;6994;49.752;6.094;2023-05-07T15:24:36;21.90;99.90
13848;DHT22;6994;49.752;6.094;2023-05-07T15:27:03;22.10;99.90
13848;DHT22;6994;49.752;6.094;2023-05-07T15:29:30;22.00;99.90
13848;DHT22;6994;49.752;6.094;2023-05-07T15:31:58;21.70;99.90
13848;DHT22;6994;49.752;6.094;2023-05-07T15:34:26;21.70;99.90
13848;DHT22;6994;49.752;6.094;2023-05-07T15:36:54;21.60;99.90
13848;DHT22;6994;49.752;6.094;2023-05-07T15:39:21;21.40;99.90
13848;DHT22;6994;49.752;6.094;2023-05-07T15:41:48;21.40;99.90
13848;DHT22;6994;49.752;6.094;2023-05-07T15:44:15;21.30;99.90
13848;DHT22;6994;49.752;6.094;2023-05-07T15:46:42;21.30;99.90
13848;DHT22;6994;49.752;6.094;2023-05-07T15:49:10;21.30;99.90
13848;DHT22;6994;49.752;6.094;2023-05-07T15:51:37;21.30;99.90
13848;DHT22;6994;49.752;6.094;2023-05-07T15:54:04;21.40;99.90
13848;DHT22;6994;49.752;6.094;2023-05-07T15:56:31;21.40;99.90
13848;DHT22;6994;49.752;6.094;2023-05-07T15:58:59;21.50;99.90
13848;DHT22;6994;49.752;6.094;2023-05-07T16:01:27;21.50;99.90
13848;DHT22;6994;49.752;6.094;2023-05-07T16:03:55;21.50;99.90
13848;DHT22;6994;49.752;6.094;2023-05-07T16:06:23;21.50;99.90